Latest Weather Observations for Albury

IDN60801

Issued at 7:33 am EST Thursday 1 September 2016 (issued every 30 minutes, with the page automatically refreshed every 10 minutes)

About weather observations | Map of weather stations | Latest weather observations for NSW | Other Formats
Station Details ID: 072160 Name: ALBURY AIRPORT AWS Lat: -36.07 Lon: 146.95 Height: 163.5 m
Data from the previous 72 hours. | See also: Recent months at Albury
Date/Time
EST
Temp
°C
App
Temp
°C
Dew
Point
°C
Rel
Hum
%
Delta-T
°C
Wind Press
QNH
hPa
Press
MSL
hPa
Rain since
9am
mm
Dir  Spd
km/h
Gust
km/h
Spd
kts
Gust
kts
01/07:30am 10.6 10.8 10.6 100 0.0 CALM 0 0 0 0 1019.2 1019.5 0.4
01/07:00am 10.1 10.2 10.1 100 0.0 CALM 0 0 0 0 1019.1 1019.4 0.4
01/06:30am 10.0 10.1 10.0 100 0.0 CALM 0 0 0 0 1018.9 1019.2 0.4
01/06:00am 10.1 10.2 10.1 100 0.0 CALM 0 0 0 0 1018.6 1018.9 0.4
01/05:30am 9.9 9.9 9.9 100 0.0 CALM 0 0 0 0 1018.6 1018.9 0.4
01/05:00am 10.0 10.1 10.0 100 0.0 CALM 0 0 0 0 1018.4 1018.7 0.4
01/04:30am 10.1 10.2 10.1 100 0.0 CALM 0 0 0 0 1018.4 1018.7 0.4
01/04:00am 10.0 10.1 10.0 100 0.0 CALM 0 0 0 0 1018.4 1018.7 0.4
01/03:30am 9.8 9.8 9.8 100 0.0 CALM 0 0 0 0 1018.5 1018.8 0.4
01/03:00am 9.5 9.4 9.5 100 0.0 CALM 0 0 0 0 1018.4 1018.7 0.4
01/02:30am 9.3 9.2 9.3 100 0.0 CALM 0 0 0 0 1018.6 1018.9 0.4
01/02:00am 9.2 9.0 9.2 100 0.0 CALM 0 0 0 0 1018.7 1019.0 0.4
01/01:30am 8.6 7.9 8.6 100 0.0 NNE 2 6 1 3 1018.8 1019.1 0.4
01/01:16am 9.1 8.9 9.1 100 0.0 CALM 0 0 0 0 1018.9 1019.2 0.4
01/01:00am 9.1 8.9 9.0 99 0.0 CALM 0 0 0 0 1018.8 1019.1 0.4
01/12:37am 9.3 9.0 8.8 97 0.2 CALM 0 0 0 0 1018.7 1019.0 0.4
01/12:30am 9.9 9.8 9.6 98 0.2 CALM 0 0 0 0 1018.7 1019.0 0.4
01/12:00am 10.4 10.5 10.1 98 0.2 CALM 0 0 0 0 1018.6 1018.9 0.4
 
Date/Time
EST
Temp
°C
App
Temp
°C
Dew
Point
°C
Rel
Hum
%
Delta-T
°C
Wind Press
QNH
hPa
Press
MSL
hPa
Rain since
9am
mm
Dir  Spd
km/h
Gust
km/h
Spd
kts
Gust
kts
31/11:30pm 9.8 8.5 9.3 97 0.3 E 6 7 3 4 1018.6 1018.9 0.4
31/11:00pm 10.0 8.8 9.7 98 0.2 ESE 6 9 3 5 1018.5 1018.8 0.4
31/10:30pm 10.3 8.9 9.7 96 0.3 ENE 7 9 4 5 1018.4 1018.7 0.4
31/10:00pm 11.6 10.4 9.7 88 1.0 W 6 9 3 5 1018.4 1018.7 0.4
31/09:30pm 12.8 10.8 10.2 84 1.4 W 11 15 6 8 1018.4 1018.7 0.4
31/09:00pm 13.0 11.2 10.7 86 1.2 W 11 15 6 8 1018.3 1018.5 0.4
31/08:30pm 11.5 11.7 10.7 95 0.4 CALM 0 0 0 0 1018.2 1018.4 0.4
31/08:00pm 11.7 12.0 10.8 94 0.5 CALM 0 0 0 0 1017.8 1018.0 0.4
31/07:30pm 12.0 11.0 10.2 89 0.9 NW 6 9 3 5 1017.4 1017.6 0.4
31/07:00pm 12.6 11.7 10.7 88 1.0 NW 6 7 3 4 1017.1 1017.3 0.4
31/06:30pm 13.2 11.7 10.6 84 1.4 WNW 9 15 5 8 1016.6 1016.8 0.4
31/06:00pm 13.9 12.3 11.4 85 1.3 WNW 11 15 6 8 1016.4 1016.6 0.4
31/05:30pm 14.4 12.5 11.7 84 1.5 NW 13 17 7 9 1016.1 1016.3 0.4
31/05:00pm 14.6 12.4 12.1 85 1.4 WNW 15 19 8 10 1016.0 1016.2 0.4
31/04:30pm 14.6 12.1 11.2 80 1.8 WNW 15 20 8 11 1015.4 1015.7 0.4
31/04:00pm 16.1 12.7 10.6 70 2.9 NW 19 26 10 14 1015.1 1015.4 0.2
31/03:30pm 17.2 14.0 11.2 68 3.3 WNW 19 24 10 13 1015.3 1015.6 0.2
31/03:00pm 16.7 13.0 10.3 66 3.4 W 20 28 11 15 1015.1 1015.4 0.2
31/02:30pm 16.8 13.0 11.1 69 3.1 WNW 22 32 12 17 1015.0 1015.3 0.2
31/02:00pm 16.5 13.0 12.3 76 2.3 W 22 32 12 17 1014.9 1015.2 0.2
31/01:30pm 18.1 15.7 12.5 70 3.1 WNW 17 26 9 14 1014.7 1015.0 0.2
31/01:00pm 16.5 13.1 11.4 72 2.8 W 20 28 11 15 1014.8 1015.1 0.2
31/12:30pm 16.6 13.7 12.2 75 2.4 WNW 19 26 10 14 1015.2 1015.5 0.2
31/12:24pm 16.9 14.0 12.2 74 2.6 WNW 19 26 10 14 1015.3 1015.6 0.2
31/12:00pm 16.9 14.3 12.0 73 2.7 WNW 17 20 9 11 1015.4 1015.7 0.2
31/11:56am 17.6 15.2 12.7 73 2.7 WNW 17 24 9 13 1015.4 1015.7 0.2
31/11:39am 16.4 14.0 12.6 78 2.1 W 17 24 9 13 1015.5 1015.8 0.2
31/11:30am 16.7 14.3 13.8 83 1.7 W 19 28 10 15 1015.5 1015.8 0.2
31/11:00am 16.6 14.2 13.9 84 1.5 WNW 19 24 10 13 1015.5 1015.8 0.2
31/10:30am 15.2 12.7 13.4 89 1.0 WNW 19 28 10 15 1015.9 1016.1 0.2
31/10:00am 14.8 12.7 13.7 93 0.6 W 17 22 9 12 1015.6 1015.9 0.2
31/09:30am 14.5 13.9 14.5 100 0.0 W 11 17 6 9 1015.6 1015.9 0.2
31/09:22am 14.2 12.7 14.2 100 0.0 W 15 20 8 11 1015.8 1016.0 0.2
31/09:00am 13.9 12.3 13.9 100 0.0 W 15 22 8 12 1015.6 1015.9 22.0
31/08:30am 14.3 12.4 14.3 100 0.0 WNW 17 24 9 13 1015.3 1015.6 20.4
31/08:03am 14.6 12.8 14.4 99 0.1 NW 17 20 9 11 1015.2 1015.5 20.4
31/08:00am 14.7 12.9 14.5 99 0.1 NW 17 20 9 11 1015.1 1015.4 20.4
31/07:30am 14.9 12.8 14.6 98 0.2 NW 19 28 10 15 1014.8 1015.1 20.4
31/07:10am 14.7 13.0 14.7 100 0.0 NNW 17 26 9 14 1014.8 1015.1 20.4
31/07:00am 14.5 12.7 14.5 100 0.0 NNW 17 22 9 12 1014.5 1014.8 20.4
31/06:47am 14.5 12.7 14.5 100 0.0 NNW 17 24 9 13 1014.6 1014.9 19.4
31/06:30am 14.6 13.6 14.6 100 0.0 NNW 13 19 7 10 1014.5 1014.8 18.8
31/06:25am 14.6 13.6 14.6 100 0.0 NNW 13 19 7 10 1014.6 1014.9 18.8
31/06:07am 14.5 13.1 14.5 100 0.0 NNW 15 24 8 13 1014.5 1014.8 18.6
31/06:00am 14.6 13.6 14.6 100 0.0 NNW 13 22 7 12 1014.4 1014.7 18.4
31/05:38am 14.6 12.5 14.6 100 0.0 NNW 19 30 10 16 1014.2 1014.5 18.2
31/05:30am 14.6 12.9 14.6 100 0.0 NNW 17 24 9 13 1014.2 1014.5 18.2
31/05:20am 14.6 12.2 14.4 99 0.1 NNW 20 28 11 15 1014.3 1014.6 17.8
31/05:00am 14.7 12.5 14.5 99 0.1 N 19 24 10 13 1014.4 1014.7 17.6
31/04:30am 14.7 12.9 14.4 98 0.2 N 17 22 9 12 1014.3 1014.6 17.4
31/04:00am 14.9 13.1 14.4 97 0.3 N 17 28 9 15 1014.4 1014.7 16.2
31/03:30am 14.9 12.5 14.4 97 0.3 N 20 32 11 17 1014.4 1014.7 15.8
31/03:00am 14.8 12.4 14.5 98 0.2 NNW 20 33 11 18 1014.8 1015.1 15.0
31/02:30am 14.8 12.4 14.5 98 0.2 NNW 20 32 11 17 1015.3 1015.6 13.4
31/02:00am 14.9 12.8 14.6 98 0.2 N 19 35 10 19 1015.6 1015.9 12.0
31/01:30am 15.1 12.3 14.3 95 0.5 N 22 39 12 21 1015.9 1016.1 10.4
31/01:02am 14.7 12.4 14.1 96 0.3 N 19 28 10 15 1016.0 1016.2 10.2
31/01:00am 14.7 12.4 14.1 96 0.3 NNE 19 28 10 15 1016.0 1016.2 10.2
31/12:30am 14.8 12.3 14.0 95 0.5 N 20 32 11 17 1016.8 1017.0 9.8
31/12:00am 14.8 11.9 14.0 95 0.5 N 22 35 12 19 1017.3 1017.5 8.8
 
Date/Time
EST
Temp
°C
App
Temp
°C
Dew
Point
°C
Rel
Hum
%
Delta-T
°C
Wind Press
QNH
hPa
Press
MSL
hPa
Rain since
9am
mm
Dir  Spd
km/h
Gust
km/h
Spd
kts
Gust
kts
30/11:30pm 14.9 11.9 14.9 100 0.0 N 24 37 13 20 1017.3 1017.5 7.4
30/11:00pm 12.0 11.5 12.0 100 0.0 ESE 6 7 3 4 1017.5 1017.7 6.6
30/10:30pm 11.5 10.3 11.5 100 0.0 SE 9 13 5 7 1017.9 1018.1 5.8
30/10:00pm 11.4 10.7 11.4 100 0.0 S 6 7 3 4 1018.5 1018.8 4.4
30/09:30pm 11.4 10.5 11.4 100 0.0 NE 7 7 4 4 1018.7 1019.0 3.4
30/09:00pm 11.5 10.6 11.3 99 0.1 ENE 7 11 4 6 1018.9 1019.2 2.8
30/08:30pm 11.6 10.7 11.3 98 0.2 E 7 9 4 5 1019.3 1019.6 2.0
30/08:00pm 11.9 11.5 11.1 95 0.4 NNW 4 7 2 4 1019.9 1020.2 1.6
30/07:30pm 12.0 11.1 10.6 91 0.7 NNE 6 7 3 4 1019.8 1020.1 1.0
30/07:00pm 12.2 11.6 10.4 89 0.9 NNE 4 7 2 4 1019.2 1019.5 0.4
30/06:30pm 12.7 11.7 10.4 86 1.2 ESE 6 9 3 5 1019.2 1019.5 0.4
30/06:00pm 12.6 12.5 10.7 88 1.0 NNW 2 6 1 3 1019.4 1019.7 0.4
30/05:30pm 12.8 11.7 10.7 87 1.1 SSE 7 13 4 7 1019.2 1019.5 0.4
30/05:00pm 13.3 12.6 11.4 88 1.0 NNE 6 6 3 3 1019.7 1020.0 0.4
30/04:30pm 13.9 14.1 10.5 80 1.8 CALM 0 6 0 3 1019.6 1019.9 0.4
30/04:00pm 14.4 13.6 9.6 73 2.5 ESE 4 7 2 4 1019.8 1020.1 0.2
30/03:30pm 14.9 13.5 10.9 77 2.1 ENE 9 11 5 6 1020.0 1020.3 0.0
30/03:00pm 15.2 13.6 10.2 72 2.6 SE 9 13 5 7 1019.7 1020.0 0.0
30/02:30pm 15.2 15.3 10.2 72 2.6 CALM 0 9 0 5 1020.5 1020.8 0.0
30/02:00pm 14.9 15.0 10.3 74 2.4 CALM 0 0 0 0 1020.7 1021.0 0.0
30/01:30pm 14.4 13.2 10.4 77 2.1 SE 7 11 4 6 1020.6 1020.9 0.0
30/01:00pm 13.7 12.6 10.5 81 1.7 E 7 9 4 5 1021.2 1021.5 0.0
30/12:30pm 13.4 12.1 10.0 80 1.8 ESE 7 9 4 5 1022.3 1022.5 0.0
30/12:00pm 13.5 12.7 9.6 77 2.0 SSE 4 11 2 6 1023.0 1023.2 0.0
30/11:30am 13.7 12.3 8.7 72 2.5 ESE 6 9 3 5 1023.1 1023.3 0.0
30/11:00am 13.4 11.4 8.7 73 2.4 SE 9 13 5 7 1023.0 1023.2 0.0
30/10:30am 12.6 10.9 8.5 76 2.1 E 7 11 4 6 1023.3 1023.5 0.0
30/10:00am 11.8 10.0 7.9 77 1.9 ESE 7 9 4 5 1024.0 1024.3 0.0
30/09:30am 11.2 9.6 7.9 80 1.6 NNE 6 7 3 4 1024.5 1024.8 0.0
30/09:00am 10.6 8.7 7.5 81 1.5 N 7 9 4 5 1024.4 1024.7 0.0
30/08:30am 9.9 9.0 7.8 87 1.0 S 2 6 1 3 1023.8 1024.1 0.0
30/08:00am 9.3 8.9 8.2 93 0.5 CALM 0 7 0 4 1023.9 1024.2 0.0
30/07:30am 8.7 7.0 7.5 92 0.6 NE 6 7 3 4 1023.9 1024.2 0.0
30/07:00am 8.7 8.1 7.2 90 0.7 CALM 0 0 0 0 1024.0 1024.3 0.0
30/06:30am 8.4 6.9 7.0 91 0.7 NNW 4 7 2 4 1023.8 1024.1 0.0
30/06:00am 8.7 6.8 7.5 92 0.6 E 7 9 4 5 1023.3 1023.5 0.0
30/05:30am 8.7 8.1 7.6 93 0.5 CALM 0 6 0 3 1023.3 1023.5 0.0
30/05:00am 8.1 6.3 7.2 94 0.4 N 6 11 3 6 1023.7 1024.0 0.0
30/04:30am 8.3 6.9 7.1 92 0.6 ENE 4 6 2 3 1023.0 1023.2 0.0
30/04:00am 8.4 6.6 7.0 91 0.7 NE 6 7 3 4 1023.1 1023.3 0.0
30/03:30am 9.1 8.4 7.1 87 0.9 CALM 0 0 0 0 1023.6 1023.9 0.0
30/03:00am 9.2 8.6 7.3 88 0.9 CALM 0 0 0 0 1023.7 1024.0 0.0
30/02:30am 9.0 8.5 7.8 92 0.6 CALM 0 0 0 0 1023.9 1024.2 0.0
30/02:00am 8.9 7.1 7.2 89 0.8 NW 6 7 3 4 1023.7 1024.0 0.0
30/01:30am 9.1 8.5 7.2 88 0.9 CALM 0 0 0 0 1023.9 1024.2 0.0
30/01:00am 9.6 9.0 7.4 86 1.0 CALM 0 0 0 0 1023.8 1024.1 0.0
30/12:30am 9.3 8.4 7.7 90 0.8 NE 2 6 1 3 1023.9 1024.2 0.0
30/12:00am 9.1 8.2 7.9 92 0.6 ENE 2 6 1 3 1024.1 1024.4 0.0
 
Date/Time
EST
Temp
°C
App
Temp
°C
Dew
Point
°C
Rel
Hum
%
Delta-T
°C
Wind Press
QNH
hPa
Press
MSL
hPa
Rain since
9am
mm
Dir  Spd
km/h
Gust
km/h
Spd
kts
Gust
kts
29/11:30pm 9.3 7.4 7.7 90 0.8 ESE 7 9 4 5 1024.2 1024.5 0.0
29/11:00pm 8.6 8.1 7.7 94 0.4 CALM 0 0 0 0 1024.8 1025.1 0.0
29/10:30pm 8.6 8.0 7.4 92 0.6 CALM 0 0 0 0 1024.5 1024.8 0.0
29/10:00pm 8.9 7.0 7.7 92 0.6 E 7 9 4 5 1024.4 1024.7 0.0
29/09:30pm 9.0 8.4 7.6 91 0.7 CALM 0 0 0 0 1024.6 1024.9 0.0
29/09:00pm 9.2 8.6 7.3 88 0.9 CALM 0 2 0 1 1024.7 1025.0 0.0
29/08:30pm 9.5 7.7 7.1 85 1.1 NE 6 7 3 4 1024.4 1024.7 0.0
29/08:00pm 9.8 8.3 6.9 82 1.4 NNW 4 7 2 4 1024.4 1024.7 0.0
29/07:30pm 10.5 9.8 7.0 79 1.7 CALM 0 0 0 0 1024.0 1024.3 0.0
29/07:00pm 11.7 10.3 7.4 75 2.1 NNE 4 7 2 4 1023.8 1024.1 0.0
29/06:30pm 12.4 11.3 6.7 68 2.7 NNE 2 6 1 3 1023.7 1024.0 0.0
29/06:00pm 13.6 11.6 7.2 65 3.1 NNE 7 11 4 6 1023.3 1023.5 0.0
29/05:30pm 14.7 12.4 7.3 61 3.7 ENE 9 9 5 5 1023.1 1023.3 0.0
29/05:00pm 15.4 12.9 6.7 56 4.3 N 9 11 5 6 1023.5 1023.8 0.0
29/04:30pm 15.8 12.9 6.3 53 4.7 N 11 13 6 7 1023.8 1024.1 0.0
29/04:00pm 16.0 12.8 6.7 54 4.6 N 13 19 7 10 1024.1 1024.4 0.0
29/03:30pm 16.4 13.3 7.1 54 4.6 NNW 13 19 7 10 1024.1 1024.4 0.0
29/03:00pm 16.5 13.9 6.3 51 5.0 N 9 13 5 7 1023.9 1024.2 0.0
29/02:30pm 17.4 14.7 5.7 46 5.7 NE 9 17 5 9 1023.7 1024.0 0.0
29/02:00pm 16.9 15.1 7.3 53 4.8 S 6 11 3 6 1024.0 1024.3 0.0
29/01:30pm 16.4 14.1 7.6 56 4.4 E 9 15 5 8 1024.3 1024.6 0.0
29/01:00pm 16.2 14.3 7.4 56 4.4 E 7 13 4 7 1024.6 1024.9 0.0
29/12:30pm 15.6 14.1 8.6 63 3.6 SE 6 9 3 5 1025.0 1025.3 0.0
29/12:00pm 14.8 12.9 7.4 61 3.7 ESE 7 11 4 6 1025.4 1025.7 0.0
29/11:30am 14.5 12.9 7.8 64 3.4 E 6 13 3 7 1025.7 1026.0 0.0
29/11:00am 13.6 11.1 8.2 70 2.7 ESE 11 15 6 8 1026.1 1026.4 0.0
29/10:30am 13.3 11.7 8.8 74 2.3 E 7 9 4 5 1026.7 1027.0 0.0
29/10:00am 11.1 9.3 8.0 81 1.5 SE 7 11 4 6 1027.2 1027.5 0.0
29/09:30am 9.9 7.6 7.3 84 1.2 SE 9 11 5 6 1027.3 1027.6 0.0
29/09:00am 10.0 9.4 7.6 85 1.2 CALM 0 0 0 0 1027.3 1027.6 0.0
29/08:30am 7.7 7.0 7.0 95 0.3 CALM 0 0 0 0 1026.9 1027.2 0.0
29/08:00am 6.8 6.1 6.8 100 0.0 CALM 0 6 0 3 1026.6 1026.9 0.0

Other Formats:

Comma delimited format used in spreadsheet applications
http://www.bom.gov.au/fwo/IDN60801/IDN60801.95896.axf

JavaScript Object Notation format (JSON) in row-major order
http://www.bom.gov.au/fwo/IDN60801/IDN60801.95896.json